Time;durP1;ratioP1;P1;durP2;ratioP2;P2;SDS_P1;SDS_P2;PMS_P1;PMS_P2;Temp;Humidity;BMP_temperature;BMP_pressure;BME280_temperature;BME280_humidity;BME280_pressure;Samples;Min_cycle;Max_cycle;Signal;HPM_P1;HPM_P2
2021/05/11 00:01:12;;;;;;;4.20;2.90;;;;;;;18.25;56.31;99129.91;5032719;28;20057;-73
2021/05/11 00:03:38;;;;;;;4.10;2.75;;;;;;;18.24;56.53;99130.88;5031410;28;20124;-73
2021/05/11 00:06:05;;;;;;;3.17;2.72;;;;;;;18.24;56.63;99122.91;5031912;28;20085;-73
2021/05/11 00:08:31;;;;;;;3.28;2.35;;;;;;;18.25;56.70;99131.72;5031478;28;20470;-75
2021/05/11 00:10:58;;;;;;;3.75;2.53;;;;;;;18.26;56.79;99128.06;5031398;28;20085;-76
2021/05/11 00:13:24;;;;;;;3.10;2.40;;;;;;;18.25;56.79;99126.41;5030993;28;20089;-76
2021/05/11 00:15:50;;;;;;;4.25;2.58;;;;;;;18.24;56.88;99130.88;5031237;28;20473;-76
2021/05/11 00:18:17;;;;;;;3.72;2.15;;;;;;;18.23;56.80;99134.53;5031000;28;20081;-76
2021/05/11 00:20:43;;;;;;;3.60;2.60;;;;;;;18.21;56.81;99140.03;5035154;28;20598;-76
2021/05/11 00:23:09;;;;;;;2.55;2.35;;;;;;;18.19;57.18;99142.00;5034851;28;20049;-76
2021/05/11 00:25:35;;;;;;;4.03;2.35;;;;;;;18.17;57.38;99151.16;5034745;28;20085;-76
2021/05/11 00:28:03;;;;;;;2.55;2.35;;;;;;;18.14;57.34;99148.78;5036112;28;20199;-76
2021/05/11 00:30:29;;;;;;;3.15;2.78;;;;;;;18.12;57.47;99150.78;5034864;28;20069;-76
2021/05/11 00:32:55;;;;;;;3.25;2.40;;;;;;;18.08;57.36;99150.22;5034320;28;20064;-73
2021/05/11 00:35:21;;;;;;;4.53;2.33;;;;;;;18.04;57.54;99147.00;5034318;28;20105;-74
2021/05/11 00:37:47;;;;;;;5.10;2.60;;;;;;;18.01;57.73;99152.63;5034459;28;20063;-73
2021/05/11 00:40:14;;;;;;;2.55;2.33;;;;;;;17.99;57.98;99159.94;5034357;28;20140;-73
2021/05/11 00:42:41;;;;;;;2.85;2.55;;;;;;;17.98;57.84;99163.56;5034386;28;20085;-73
2021/05/11 00:45:08;;;;;;;5.00;2.65;;;;;;;17.96;58.02;99149.56;5034035;28;20133;-74
2021/05/11 00:47:34;;;;;;;2.38;2.05;;;;;;;17.96;57.82;99154.91;5034128;28;20061;-73
2021/05/11 00:50:01;;;;;;;3.85;2.50;;;;;;;17.94;57.73;99157.72;5034288;28;20057;-73
2021/05/11 00:52:28;;;;;;;2.33;1.85;;;;;;;17.93;58.01;99157.84;5034434;28;20144;-73
2021/05/11 00:54:55;;;;;;;2.13;1.77;;;;;;;17.92;57.70;99161.50;5033944;28;20136;-73
2021/05/11 00:57:22;;;;;;;2.60;1.83;;;;;;;17.90;57.76;99160.84;5034098;28;20103;-74
2021/05/11 00:59:51;;;;;;;2.47;1.70;;;;;;;17.87;58.46;99163.78;5034252;28;20136;-74
2021/05/11 01:02:17;;;;;;;3.63;1.70;;;;;;;17.86;57.68;99170.94;5033901;28;20050;-74
2021/05/11 01:04:44;;;;;;;2.67;1.33;;;;;;;17.83;57.72;99177.41;5033424;28;20129;-74
2021/05/11 01:07:10;;;;;;;1.92;1.30;;;;;;;17.80;57.99;99180.34;5033729;28;20053;-74
2021/05/11 01:09:36;;;;;;;2.03;1.25;;;;;;;17.79;58.02;99177.88;5034926;28;20107;-74
2021/05/11 01:12:03;;;;;;;1.20;1.10;;;;;;;17.75;58.16;99173.81;5033988;28;20080;-73
2021/05/11 01:14:29;;;;;;;1.73;1.10;;;;;;;17.71;58.07;99178.56;5035137;28;20077;-73
2021/05/11 01:16:59;;;;;;;2.08;1.25;;;;;;;17.68;58.18;99173.56;5033944;28;20537;-73
2021/05/11 01:22:29;;;;;;;2.35;1.15;;;;;;;17.63;58.13;99165.19;5034116;28;20478;-73
2021/05/11 01:25:00;;;;;;;2.08;1.02;;;;;;;17.60;58.29;99161.00;5033415;28;20136;-73
2021/05/11 02:22:43;;;;;;;3.42;2.95;;;;;;;17.60;60.01;99160.16;5033573;28;20569;-76
2021/05/11 02:25:13;;;;;;;3.42;3.08;;;;;;;17.61;60.36;99161.84;5032552;28;20143;-76
2021/05/11 02:27:39;;;;;;;5.88;3.45;;;;;;;17.62;60.19;99151.03;5032527;28;20111;-76
2021/05/11 02:30:08;;;;;;;4.20;2.92;;;;;;;17.63;60.17;99155.38;5031972;28;20088;-76
2021/05/11 02:32:36;;;;;;;7.00;3.30;;;;;;;17.65;60.27;99153.38;5012520;28;20090;-76
2021/05/11 02:35:04;;;;;;;3.55;3.25;;;;;;;17.67;60.42;99158.56;5028445;28;20045;-76
2021/05/11 02:37:31;;;;;;;5.07;3.10;;;;;;;17.67;60.63;99153.25;5012738;28;20053;-76
2021/05/11 02:39:57;;;;;;;3.80;3.50;;;;;;;17.68;60.30;99134.47;5012400;28;20532;-76
2021/05/11 02:42:24;;;;;;;5.53;3.55;;;;;;;17.68;60.52;99142.47;5011113;28;20058;-76
2021/05/11 02:44:51;;;;;;;5.60;3.63;;;;;;;17.68;60.39;99150.44;5011859;28;20060;-76
2021/05/11 02:47:17;;;;;;;5.78;3.92;;;;;;;17.67;60.60;99147.94;5022972;28;20136;-76
2021/05/11 02:49:45;;;;;;;4.43;3.78;;;;;;;17.65;60.53;99152.56;5031943;28;20064;-76
2021/05/11 02:52:12;;;;;;;5.53;3.55;;;;;;;17.65;60.77;99155.22;5032304;28;20136;-76
2021/05/11 02:54:39;;;;;;;4.20;3.60;;;;;;;17.63;60.82;99143.88;5032296;28;20132;-73
2021/05/11 02:57:06;;;;;;;4.45;3.42;;;;;;;17.63;60.71;99142.06;5032344;28;20406;-73
2021/05/11 02:59:39;;;;;;;4.15;3.75;;;;;;;17.62;60.64;99129.75;5031650;28;20061;-74
2021/05/11 03:02:05;;;;;;;5.35;3.58;;;;;;;17.62;60.82;99139.56;5031927;28;20108;-73
2021/05/11 03:04:32;;;;;;;3.65;3.30;;;;;;;17.61;60.63;99135.22;5031824;28;20141;-73
2021/05/11 03:06:58;;;;;;;4.32;3.22;;;;;;;17.60;60.66;99142.34;5032002;28;20414;-77
2021/05/11 03:09:25;;;;;;;3.47;2.60;;;;;;;17.60;60.75;99138.88;5032740;28;20049;-77
2021/05/11 03:11:55;;;;;;;3.30;2.78;;;;;;;17.58;60.82;99134.53;5031660;28;20091;-77
2021/05/11 03:14:22;;;;;;;3.45;2.72;;;;;;;17.58;60.69;99131.84;5011854;28;20100;-78
2021/05/11 03:16:51;;;;;;;2.78;2.58;;;;;;;17.56;60.61;99136.50;5013036;28;20141;-76
2021/05/11 03:19:19;;;;;;;2.55;2.28;;;;;;;17.56;60.42;99136.50;5012085;28;20057;-76
2021/05/11 03:21:45;;;;;;;3.10;2.60;;;;;;;17.54;60.62;99133.13;5012033;28;20081;-76
2021/05/11 03:24:16;;;;;;;3.05;2.70;;;;;;;17.52;61.04;99127.16;5011968;28;20050;-76
2021/05/11 03:26:42;;;;;;;2.35;2.15;;;;;;;17.54;60.86;99129.66;5012080;28;20053;-74
2021/05/11 03:29:10;;;;;;;6.70;2.53;;;;;;;17.52;61.19;99137.78;5016579;28;20405;-73
2021/05/11 03:31:37;;;;;;;2.20;1.90;;;;;;;17.52;61.08;99135.13;5031247;28;20096;-73
2021/05/11 03:34:03;;;;;;;2.83;2.35;;;;;;;17.52;61.16;99121.81;5031508;28;20099;-73
2021/05/11 03:36:30;;;;;;;2.72;2.30;;;;;;;17.52;61.25;99124.47;5031568;28;20441;-73
2021/05/11 03:38:59;;;;;;;2.72;2.08;;;;;;;17.53;60.93;99123.50;5031382;28;20144;-76
2021/05/11 03:41:29;;;;;;;3.22;1.80;;;;;;;17.54;60.92;99127.00;5032007;28;20549;-73
2021/05/11 03:44:01;;;;;;;2.55;1.92;;;;;;;17.52;61.01;99121.81;5031592;28;20467;-76
2021/05/11 03:46:26;;;;;;;3.15;2.40;;;;;;;17.53;61.19;99130.66;5031896;28;20116;-73
2021/05/11 03:48:54;;;;;;;4.07;2.10;;;;;;;17.50;61.30;99126.47;5031814;28;20555;-74
2021/05/11 03:51:21;;;;;;;4.22;2.88;;;;;;;17.50;61.22;99133.59;5031417;28;20182;-73
2021/05/11 03:53:47;;;;;;;2.85;2.17;;;;;;;17.47;61.24;99129.41;5031321;28;20084;-73
2021/05/11 03:56:14;;;;;;;1.75;1.65;;;;;;;17.45;61.41;99134.03;5034956;28;20132;-73
2021/05/11 03:58:41;;;;;;;2.30;2.10;;;;;;;17.43;61.39;99144.81;5035271;28;20096;-73
2021/05/11 04:01:12;;;;;;;2.75;2.00;;;;;;;17.41;62.39;99137.97;5035372;28;20136;-73
2021/05/11 04:03:39;;;;;;;3.15;2.20;;;;;;;17.40;61.45;99131.84;5035257;28;20421;-73
2021/05/11 04:06:09;;;;;;;4.13;2.25;;;;;;;17.38;62.25;99128.47;5035917;28;20085;-73
2021/05/11 04:14:11;;;;;;;6.72;4.55;;;;;;;17.33;62.73;99133.41;5036836;28;20481;-73
2021/05/11 04:16:40;;;;;;;7.88;5.38;;;;;;;17.35;61.89;99138.56;5035775;28;20085;-73
2021/05/11 04:19:07;;;;;;;5.80;5.20;;;;;;;17.34;61.85;99136.91;5034912;28;20053;-74
2021/05/11 04:21:34;;;;;;;6.25;5.38;;;;;;;17.32;62.18;99140.53;5034082;28;20104;-73
2021/05/11 04:24:01;;;;;;;7.75;5.35;;;;;;;17.34;62.04;99137.72;5034504;28;20085;-74
2021/05/11 04:26:28;;;;;;;7.93;6.40;;;;;;;17.34;62.18;99137.72;5034733;28;20092;-73
2021/05/11 04:28:55;;;;;;;6.65;5.72;;;;;;;17.35;62.41;99135.91;5034819;28;20088;-73
2021/05/11 04:31:22;;;;;;;6.75;6.05;;;;;;;17.36;62.32;99145.56;5034547;28;20502;-73
2021/05/11 04:33:49;;;;;;;7.90;7.10;;;;;;;17.34;62.31;99139.56;5034474;28;20076;-73
2021/05/11 04:36:16;;;;;;;8.30;7.13;;;;;;;17.30;62.53;99137.19;5033952;28;20131;-74
2021/05/11 04:38:43;;;;;;;9.18;7.22;;;;;;;17.27;62.68;99140.13;5034624;28;20096;-73
2021/05/11 04:41:09;;;;;;;7.28;6.55;;;;;;;17.25;62.79;99142.13;5034511;28;20136;-73
2021/05/11 04:43:37;;;;;;;6.85;6.22;;;;;;;17.23;62.75;99151.22;5034192;28;20107;-74
2021/05/11 04:46:22;;;;;;;6.60;5.90;;;;;;;17.21;63.13;99148.72;5034304;28;20057;-73
2021/05/11 04:48:51;;;;;;;7.25;5.68;;;;;;;17.20;63.17;99147.03;5034441;28;20136;-78
2021/05/11 04:51:20;;;;;;;3.90;3.50;;;;;;;17.19;62.82;99154.16;5034285;28;20064;-78
2021/05/11 04:53:50;;;;;;;4.18;3.30;;;;;;;17.16;63.09;99146.47;5033679;28;20087;-78
2021/05/11 04:56:16;;;;;;;3.17;2.70;;;;;;;17.14;62.32;99135.16;5033970;28;20136;-78
2021/05/11 04:58:43;;;;;;;2.97;2.22;;;;;;;17.10;62.26;99144.41;5034065;28;20093;-78
2021/05/11 05:01:10;;;;;;;2.33;2.13;;;;;;;17.04;62.49;99136.97;5034060;28;20053;-78
2021/05/11 05:03:42;;;;;;;3.00;2.63;;;;;;;16.99;62.44;99145.38;5035446;28;20095;-73
2021/05/11 05:06:11;;;;;;;2.83;2.53;;;;;;;16.94;62.89;99158.28;5034158;28;20417;-73
2021/05/11 05:08:38;;;;;;;2.25;2.08;;;;;;;16.91;62.40;99154.09;5034245;28;20088;-76
2021/05/11 05:11:05;;;;;;;2.67;2.47;;;;;;;16.87;62.56;99150.03;5034022;28;20482;-73
2021/05/11 05:13:32;;;;;;;3.47;2.28;;;;;;;16.84;62.68;99152.13;5033660;28;20085;-73
2021/05/11 05:15:58;;;;;;;4.10;2.40;;;;;;;16.79;62.70;99145.44;5033988;28;20046;-73
2021/05/11 05:18:29;;;;;;;3.85;2.53;;;;;;;16.75;63.35;99140.56;5033758;28;20140;-73
2021/05/11 05:20:57;;;;;;;3.20;2.00;;;;;;;16.72;62.79;99152.31;5033774;28;20103;-73
2021/05/11 05:23:31;;;;;;;3.88;2.17;;;;;;;16.70;62.68;99150.78;5034476;28;20057;-73
2021/05/11 05:26:05;;;;;;;4.95;2.13;;;;;;;16.66;62.56;99151.06;5031440;28;20045;-73
2021/05/11 05:28:37;;;;;;;2.63;1.90;;;;;;;16.63;62.58;99153.16;5033807;28;20494;-76
2021/05/11 05:31:04;;;;;;;1.60;1.50;;;;;;;16.60;62.71;99148.13;5033573;28;20440;-76
2021/05/11 05:33:33;;;;;;;1.92;1.77;;;;;;;16.56;62.96;99152.03;5033560;28;20140;-77
2021/05/11 05:36:01;;;;;;;4.10;2.17;;;;;;;16.54;62.85;99155.69;5033437;28;20049;-77
2021/05/11 05:38:28;;;;;;;2.35;1.85;;;;;;;16.53;62.84;99156.66;5033259;28;20133;-77
2021/05/11 05:41:01;;;;;;;2.63;1.80;;;;;;;16.52;62.91;99149.66;5033353;28;20089;-73
2021/05/11 05:43:28;;;;;;;2.10;1.90;;;;;;;16.51;63.00;99149.78;5033099;28;20096;-73
2021/05/11 05:45:55;;;;;;;5.05;1.80;;;;;;;16.51;63.06;99157.78;5032979;28;20124;-76
2021/05/11 05:48:22;;;;;;;2.15;1.85;;;;;;;16.50;62.98;99150.78;5033057;28;20440;-77
2021/05/11 05:50:54;;;;;;;2.17;1.70;;;;;;;16.49;63.05;99141.16;5033231;28;20462;-78
2021/05/11 05:53:24;;;;;;;2.47;1.80;;;;;;;16.49;63.01;99143.81;5033139;28;20057;-78
2021/05/11 05:55:51;;;;;;;5.13;1.85;;;;;;;16.49;63.04;99146.47;5033108;28;20056;-73
2021/05/11 05:58:18;;;;;;;3.50;1.80;;;;;;;16.48;63.10;99148.25;5034876;28;20057;-73
2021/05/11 06:01:03;;;;;;;1.85;1.73;;;;;;;16.45;63.92;99151.19;5033297;28;20152;-73
2021/05/11 06:03:38;;;;;;;2.03;1.80;;;;;;;16.46;63.71;99158.22;5033422;28;20067;-73
2021/05/11 06:06:10;;;;;;;2.22;1.90;;;;;;;16.47;63.24;99172.31;5032916;28;20050;-76
2021/05/11 06:08:39;;;;;;;1.73;1.48;;;;;;;16.45;63.41;99164.47;5032767;28;20141;-77
2021/05/11 06:11:18;;;;;;;3.38;1.88;;;;;;;16.46;63.17;99162.66;5032926;28;20148;-76
2021/05/11 06:14:11;;;;;;;2.17;1.55;;;;;;;16.45;63.32;99172.44;5032573;28;20566;-76
2021/05/11 06:19:21;;;;;;;2.25;1.55;;;;;;;16.44;63.04;99162.00;5033398;28;20591;-78
2021/05/11 06:21:49;;;;;;;2.95;1.55;;;;;;;16.42;63.18;99156.81;5032537;28;20382;-73
2021/05/11 06:24:16;;;;;;;1.90;1.63;;;;;;;16.42;63.26;99156.81;5032481;28;20093;-74
2021/05/11 06:26:45;;;;;;;2.72;1.90;;;;;;;16.43;63.49;99158.47;5034350;28;20099;-78
2021/05/11 06:29:14;;;;;;;2.10;1.77;;;;;;;16.45;63.36;99143.22;5032689;28;20092;-77
2021/05/11 06:31:43;;;;;;;3.03;1.65;;;;;;;16.45;63.58;99135.25;5032355;28;20140;-77
2021/05/11 06:34:11;;;;;;;2.85;1.70;;;;;;;16.47;63.29;99137.78;5033509;28;20045;-77
2021/05/11 06:36:38;;;;;;;2.92;1.70;;;;;;;16.49;63.48;99138.50;5031862;28;20089;-76
2021/05/11 06:39:08;;;;;;;1.50;1.40;;;;;;;16.49;63.36;99141.97;5032275;28;20057;-73
2021/05/11 06:41:36;;;;;;;2.08;1.50;;;;;;;16.52;63.11;99140.88;5032516;28;20442;-73
2021/05/11 06:44:10;;;;;;;1.45;1.20;;;;;;;16.52;63.15;99146.19;5032556;28;20053;-76
2021/05/11 06:54:39;;;;;;;3.15;1.30;;;;;;;16.56;63.05;99160.84;5033144;28;20059;-76
2021/05/11 06:57:07;;;;;;;1.50;1.20;;;;;;;16.56;63.06;99152.88;5032146;28;20053;-73
2021/05/11 06:59:34;;;;;;;2.00;1.35;;;;;;;16.56;63.07;99155.53;5032146;28;20494;-73
2021/05/11 07:02:02;;;;;;;2.05;1.45;;;;;;;16.55;62.92;99159.16;5032749;28;20472;-73
2021/05/11 07:04:29;;;;;;;1.85;1.33;;;;;;;16.52;62.85;99168.25;5032180;28;20072;-76
2021/05/11 07:06:57;;;;;;;2.05;1.25;;;;;;;16.51;63.01;99166.59;5031835;28;20058;-76
2021/05/11 07:14:59;;;;;;;1.30;1.00;;;;;;;16.45;62.85;99177.75;5032527;28;20049;-73
2021/05/11 07:17:26;;;;;;;2.53;1.17;;;;;;;16.41;62.91;99171.91;5032136;28;20053;-73
2021/05/11 07:19:54;;;;;;;1.33;1.00;;;;;;;16.38;62.99;99174.00;5031677;28;20403;-76
2021/05/11 07:22:21;;;;;;;1.25;1.15;;;;;;;16.37;63.14;99175.00;5031724;28;20089;-76
2021/05/11 07:24:52;;;;;;;1.45;1.05;;;;;;;16.34;63.24;99170.78;5031380;28;20471;-76
2021/05/11 07:30:14;;;;;;;1.35;1.00;;;;;;;16.33;63.40;99168.28;5032547;28;20057;-76
2021/05/11 07:32:42;;;;;;;1.98;1.33;;;;;;;16.34;63.40;99164.63;5031660;28;20057;-76
2021/05/11 07:35:09;;;;;;;1.75;1.02;;;;;;;16.34;63.66;99170.78;5031823;28;20081;-76
2021/05/11 07:37:38;;;;;;;1.40;0.98;;;;;;;16.34;63.44;99164.63;5032068;28;20061;-74
2021/05/11 07:40:05;;;;;;;3.15;1.75;;;;;;;16.35;63.60;99169.81;5031601;28;20474;-73
2021/05/11 07:42:32;;;;;;;2.10;1.30;;;;;;;16.36;63.52;99175.94;5031354;28;20088;-73
2021/05/11 07:45:01;;;;;;;1.30;1.17;;;;;;;16.36;63.53;99174.13;5031337;28;20525;-73
2021/05/11 08:06:14;;;;;;;0.70;0.70;;;;;;;16.46;63.73;99178.59;5032231;28;20133;-73
2021/05/11 08:16:39;;;;;;;1.27;0.90;;;;;;;16.60;63.63;99164.88;5032376;28;20489;-73
2021/05/11 08:19:58;;;;;;;1.40;0.70;;;;;;;16.64;63.35;99160.16;5030905;28;20168;-73
2021/05/11 08:29:56;;;;;;;3.00;1.20;;;;;;;16.76;63.42;99153.72;5032066;28;20128;-78
2021/05/11 08:32:23;;;;;;;2.13;1.30;;;;;;;16.79;63.33;99142.75;5031224;28;20489;-78
2021/05/11 08:34:50;;;;;;;1.45;1.10;;;;;;;16.84;63.53;99139.69;5030783;28;20058;-78
2021/05/11 08:37:17;;;;;;;1.52;1.15;;;;;;;16.89;63.82;99125.94;5030722;28;20057;-78
2021/05/11 08:39:44;;;;;;;2.90;1.05;;;;;;;16.96;63.99;99120.94;5030877;28;20482;-79
2021/05/11 08:42:12;;;;;;;2.63;1.20;;;;;;;17.02;63.75;99110.53;5033987;28;20100;-78
2021/05/11 08:44:39;;;;;;;1.33;1.23;;;;;;;17.10;63.27;99115.16;5034215;28;20136;-78
2021/05/11 08:47:06;;;;;;;2.45;1.23;;;;;;;17.15;63.11;99120.03;5034492;28;20475;-78
2021/05/11 08:49:33;;;;;;;0.90;0.82;;;;;;;17.20;63.02;99128.41;5034476;28;20061;-78
2021/05/11 08:52:13;;;;;;;1.45;1.10;;;;;;;17.24;63.09;99120.97;5034437;28;20112;-78
2021/05/11 09:09:19;;;;;;;2.28;1.10;;;;;;;17.75;63.32;99092.13;5001850;28;20147;-73
2021/05/11 09:23:33;;;;;;;1.23;0.77;;;;;;;17.92;62.55;99109.13;5035458;28;20053;-73
2021/05/11 09:28:48;;;;;;;2.58;1.25;;;;;;;17.96;61.55;99120.28;5035177;28;20140;-73
2021/05/11 09:34:03;;;;;;;2.22;0.88;;;;;;;17.94;61.63;99120.44;5014892;28;20459;-77
2021/05/11 09:56:48;;;;;;;0.90;0.80;;;;;;;17.91;61.58;99109.25;5033784;28;20046;-76
2021/05/11 10:40:24;;;;;;;3.22;0.90;;;;;;;19.01;59.72;99070.78;5033717;28;20053;-73
2021/05/11 10:48:28;;;;;;;1.00;0.90;;;;;;;18.73;59.76;99065.63;5034106;28;20140;-73
2021/05/11 10:50:58;;;;;;;0.80;0.80;;;;;;;18.71;59.46;99067.59;5032715;28;20140;-73
2021/05/11 10:53:47;;;;;;;2.58;0.90;;;;;;;18.58;59.85;99079.53;5032714;28;20096;-73
2021/05/11 11:02:01;;;;;;;2.05;1.08;;;;;;;18.38;60.04;99078.88;5033700;28;20084;-73
2021/05/11 11:04:33;;;;;;;1.33;1.00;;;;;;;18.34;59.86;99070.38;5032236;28;20053;-73
2021/05/11 11:07:02;;;;;;;5.10;0.93;;;;;;;18.27;60.11;99058.66;5032546;28;20144;-73
2021/05/11 11:09:33;;;;;;;2.70;1.00;;;;;;;18.20;60.42;99069.09;5032215;28;20140;-73
2021/05/11 11:12:03;;;;;;;1.15;1.10;;;;;;;18.12;60.45;99069.03;5032217;28;20053;-72
2021/05/11 11:14:42;;;;;;;2.90;0.98;;;;;;;18.02;60.99;99069.06;5032330;28;20506;-73
2021/05/11 11:17:13;;;;;;;1.23;0.80;;;;;;;18.00;61.45;99075.53;5032316;28;20056;-72
2021/05/11 11:19:40;;;;;;;2.17;1.10;;;;;;;17.97;61.09;99087.34;5032657;28;20136;-72
2021/05/11 11:25:05;;;;;;;2.70;1.20;;;;;;;17.90;61.37;99091.63;5033396;28;20057;-73
2021/05/11 11:27:33;;;;;;;1.23;0.90;;;;;;;17.86;61.10;99096.38;5031963;28;20128;-73
2021/05/11 11:30:12;;;;;;;1.25;1.10;;;;;;;17.77;61.67;99099.97;5032249;28;20088;-75
2021/05/11 11:32:39;;;;;;;1.10;1.00;;;;;;;17.77;61.59;99100.81;5031603;28;20049;-76
2021/05/11 11:35:08;;;;;;;1.60;1.20;;;;;;;17.72;61.71;99095.09;5031474;28;20057;-76
2021/05/11 11:37:36;;;;;;;2.55;1.20;;;;;;;17.69;61.79;99090.06;5032813;28;20111;-76
2021/05/11 11:40:05;;;;;;;1.83;1.20;;;;;;;17.65;62.17;99094.84;5031564;28;20077;-76
2021/05/11 11:42:36;;;;;;;1.55;1.20;;;;;;;17.61;62.06;99093.50;5031611;28;20068;-76
2021/05/11 11:45:05;;;;;;;2.45;1.30;;;;;;;17.56;62.06;99077.13;5031504;28;20540;-76
2021/05/11 11:47:33;;;;;;;1.25;1.15;;;;;;;17.53;62.54;99064.94;5031702;28;20088;-76
2021/05/11 11:50:05;;;;;;;1.35;1.20;;;;;;;17.50;62.86;99043.13;5031191;28;20132;-76
2021/05/11 11:52:36;;;;;;;3.78;1.40;;;;;;;17.48;62.63;99037.13;5031053;28;20140;-76
2021/05/11 12:00:24;;;;;;;1.23;1.13;;;;;;;17.45;63.28;99031.13;5032726;28;20517;-78
2021/05/11 12:02:52;;;;;;;1.98;1.30;;;;;;;17.50;63.01;99037.81;5031370;28;20485;-77
2021/05/11 12:05:21;;;;;;;1.05;0.95;;;;;;;17.51;63.25;99047.47;5031132;28;20053;-78
2021/05/11 12:07:59;;;;;;;1.10;1.00;;;;;;;17.54;63.33;99055.16;5031076;28;20053;-77
2021/05/11 12:10:26;;;;;;;2.22;1.27;;;;;;;17.56;63.41;99067.31;5031199;28;20089;-77
2021/05/11 12:12:55;;;;;;;0.88;0.88;;;;;;;17.58;63.40;99068.00;5030835;28;20053;-77
2021/05/11 12:15:23;;;;;;;1.67;1.10;;;;;;;17.60;63.12;99072.34;5031471;28;20136;-77
2021/05/11 12:18:08;;;;;;;1.45;1.27;;;;;;;17.55;63.95;99073.63;5034994;28;20124;-76
2021/05/11 12:21:00;;;;;;;1.30;1.10;;;;;;;17.58;63.39;99077.81;5034911;28;20046;-73
2021/05/11 12:23:28;;;;;;;1.65;1.50;;;;;;;17.59;63.10;99079.47;5034805;28;20092;-77
2021/05/11 12:26:05;;;;;;;1.70;1.60;;;;;;;17.56;62.93;99077.97;5034474;28;20136;-77
2021/05/11 12:28:37;;;;;;;1.88;1.52;;;;;;;17.52;62.69;99089.91;5034283;28;20076;-78
2021/05/11 12:31:05;;;;;;;2.67;1.33;;;;;;;17.50;63.15;99085.72;5014944;28;20056;-77
2021/05/11 12:33:43;;;;;;;2.00;1.50;;;;;;;17.41;64.05;99088.28;5014856;28;20054;-73
2021/05/11 12:36:20;;;;;;;1.73;1.63;;;;;;;17.41;63.99;99084.75;5014851;28;20152;-73
2021/05/11 12:38:51;;;;;;;3.22;2.03;;;;;;;17.40;63.64;99086.59;5014612;28;20064;-73
2021/05/11 12:41:32;;;;;;;1.90;1.80;;;;;;;17.39;64.40;99094.72;5016832;28;20054;-73
2021/05/11 12:44:30;;;;;;;2.05;1.85;;;;;;;17.37;64.32;99083.38;5034191;28;20061;-76
2021/05/11 12:46:58;;;;;;;2.13;1.92;;;;;;;17.41;63.98;99074.13;5034748;28;20522;-76
2021/05/11 12:49:26;;;;;;;5.20;2.00;;;;;;;17.43;64.07;99067.66;5034500;28;20080;-76
2021/05/11 12:51:55;;;;;;;2.47;2.20;;;;;;;17.44;64.53;99060.53;5035544;28;20523;-76
2021/05/11 12:54:24;;;;;;;2.53;2.00;;;;;;;17.47;64.49;99059.38;5034463;28;20057;-76
2021/05/11 12:59:51;;;;;;;2.20;2.00;;;;;;;17.58;64.76;99046.69;5035836;28;20061;-73
2021/05/11 13:02:39;;;;;;;1.95;1.85;;;;;;;17.64;65.29;99052.44;5034544;28;20140;-73
2021/05/11 13:27:49;;;;;;;4.30;3.72;;;;;;;17.88;63.61;99056.31;5034757;28;20049;-73
2021/05/11 13:35:34;;;;;;;4.25;3.95;;;;;;;17.86;63.98;99045.00;5034562;28;20062;-76
2021/05/11 13:38:02;;;;;;;4.80;4.25;;;;;;;17.88;64.10;99045.66;5033799;28;20453;-76
2021/05/11 13:40:29;;;;;;;4.57;4.18;;;;;;;17.88;63.86;99038.53;5033245;28;20094;-76
2021/05/11 13:42:56;;;;;;;4.88;4.47;;;;;;;17.90;64.03;99041.84;5033587;28;20064;-76
2021/05/11 13:45:24;;;;;;;4.82;4.45;;;;;;;17.93;64.00;99038.03;5034707;28;20061;-76
2021/05/11 13:47:58;;;;;;;5.50;5.03;;;;;;;17.96;64.31;99054.56;5032926;28;20124;-76
2021/05/11 13:50:41;;;;;;;5.22;4.82;;;;;;;17.99;64.03;99056.09;5033350;28;20140;-76
2021/05/11 13:53:08;;;;;;;5.70;5.20;;;;;;;18.03;63.79;99062.78;5033596;28;20096;-76
2021/05/11 14:04:01;;;;;;;4.97;4.57;;;;;;;18.08;63.36;99063.19;5034176;28;20057;-76
2021/05/11 14:06:29;;;;;;;6.05;5.55;;;;;;;18.06;63.61;99054.47;5032822;28;20053;-76
2021/05/11 14:08:56;;;;;;;6.07;5.57;;;;;;;18.06;63.67;99051.81;5032103;28;20080;-76
2021/05/11 14:11:23;;;;;;;6.28;5.63;;;;;;;18.04;63.55;99045.81;5032817;28;20067;-76
2021/05/11 14:13:51;;;;;;;5.95;5.35;;;;;;;18.03;63.77;99044.13;5032752;28;20049;-76
2021/05/11 14:16:18;;;;;;;6.55;6.05;;;;;;;18.02;63.86;99042.44;5032962;28;20065;-76
2021/05/11 14:18:46;;;;;;;7.00;6.40;;;;;;;18.01;64.00;99053.28;5032745;28;20068;-76
2021/05/11 14:21:13;;;;;;;6.78;6.18;;;;;;;18.02;64.00;99057.59;5032724;28;20049;-76
2021/05/11 14:23:41;;;;;;;7.13;6.22;;;;;;;18.01;63.91;99056.75;5032524;28;20713;-76
2021/05/11 14:26:08;;;;;;;7.13;6.53;;;;;;;18.01;64.17;99062.09;5032581;28;20093;-76
2021/05/11 14:28:34;;;;;;;7.75;7.05;;;;;;;18.02;64.09;99061.09;5033880;28;20554;-76
2021/05/11 14:31:01;;;;;;;7.18;6.55;;;;;;;18.03;64.34;99059.28;5032644;28;20081;-76
2021/05/11 14:33:35;;;;;;;7.25;6.55;;;;;;;18.04;64.82;99055.59;5032764;28;20482;-76
2021/05/11 14:36:02;;;;;;;7.22;6.65;;;;;;;18.10;64.20;99055.88;5031624;28;20061;-76
2021/05/11 14:38:30;;;;;;;7.32;6.72;;;;;;;18.15;64.73;99044.75;5032277;28;20490;-76
2021/05/11 14:41:02;;;;;;;7.10;6.50;;;;;;;18.21;64.90;99040.66;5032800;28;20049;-76
2021/05/11 14:43:30;;;;;;;7.32;6.57;;;;;;;18.29;64.86;99038.03;5032427;28;20104;-76
2021/05/11 14:45:59;;;;;;;6.70;6.20;;;;;;;18.38;64.90;99036.25;5032481;28;20085;-76
2021/05/11 14:48:26;;;;;;;6.65;5.95;;;;;;;18.49;64.72;99037.81;5032226;28;20498;-76
2021/05/11 14:50:53;;;;;;;6.45;5.85;;;;;;;18.57;64.48;99023.72;5032228;28;20063;-76
2021/05/11 14:53:19;;;;;;;6.55;5.95;;;;;;;18.65;63.90;99022.94;5031815;28;20136;-76
2021/05/11 14:55:46;;;;;;;6.97;6.38;;;;;;;18.68;63.44;99034.13;5031821;28;20053;-76
2021/05/11 14:58:24;;;;;;;7.03;6.43;;;;;;;18.72;63.38;99042.63;5031991;28;20056;-77
2021/05/11 15:00:51;;;;;;;6.63;6.10;;;;;;;18.71;63.50;99047.13;5031823;28;20053;-77
2021/05/11 15:03:17;;;;;;;6.88;6.22;;;;;;;18.72;63.07;99055.94;5032643;28;20057;-78
2021/05/11 15:05:46;;;;;;;6.32;5.82;;;;;;;18.72;63.37;99047.94;5031791;28;20493;-78
2021/05/11 15:08:13;;;;;;;6.35;5.85;;;;;;;18.73;63.10;99054.97;5031677;28;20049;-78
2021/05/11 15:10:40;;;;;;;6.38;5.80;;;;;;;18.73;63.15;99055.78;5031888;28;20072;-78
2021/05/11 15:13:07;;;;;;;6.97;6.38;;;;;;;18.73;63.19;99061.13;5031636;28;20061;-78
2021/05/11 15:15:36;;;;;;;7.20;6.50;;;;;;;18.74;63.17;99062.81;5031450;28;20498;-78
2021/05/11 15:18:04;;;;;;;7.25;6.57;;;;;;;18.74;62.86;99051.31;5031734;28;20049;-77
2021/05/11 15:20:35;;;;;;;6.75;6.15;;;;;;;18.71;63.22;99056.94;5031815;28;20085;-73
2021/05/11 15:23:04;;;;;;;6.45;5.85;;;;;;;18.72;62.77;99058.63;5032423;28;20049;-73
2021/05/11 15:25:31;;;;;;;7.25;6.63;;;;;;;18.70;63.24;99050.81;5032300;28;20053;-72
2021/05/11 15:28:00;;;;;;;7.30;6.70;;;;;;;18.68;63.62;99052.78;5031820;28;20468;-73
2021/05/11 15:30:29;;;;;;;7.07;6.35;;;;;;;18.66;63.48;99044.09;5032339;28;20546;-72
2021/05/11 15:32:57;;;;;;;7.70;7.00;;;;;;;18.66;63.22;99053.94;5032123;28;20053;-72
2021/05/11 15:35:35;;;;;;;7.07;6.47;;;;;;;18.62;63.29;99053.41;5032354;28;20136;-73
2021/05/11 15:38:05;;;;;;;7.40;6.70;;;;;;;18.64;63.28;99061.25;5031373;28;20046;-73
2021/05/11 15:40:36;;;;;;;6.88;6.07;;;;;;;18.61;63.27;99055.22;5031298;28;20440;-73
2021/05/11 15:43:05;;;;;;;7.15;6.45;;;;;;;18.60;62.92;99056.22;5031319;28;20060;-73
2021/05/11 15:45:32;;;;;;;6.82;6.10;;;;;;;18.60;62.82;99048.25;5031018;28;20072;-73
2021/05/11 15:48:02;;;;;;;6.93;6.32;;;;;;;18.59;63.11;99057.22;5031343;28;20059;-76
2021/05/11 15:50:31;;;;;;;6.88;6.28;;;;;;;18.57;62.84;99055.69;5033999;28;20553;-76
2021/05/11 15:53:02;;;;;;;8.25;7.32;;;;;;;18.55;63.01;99055.88;5035559;28;20136;-76
2021/05/11 15:55:34;;;;;;;8.10;7.30;;;;;;;18.53;63.38;99059.66;5035546;28;20147;-76
2021/05/11 15:58:02;;;;;;;7.33;6.73;;;;;;;18.50;62.77;99055.47;5035449;28;20057;-76
2021/05/11 16:00:29;;;;;;;11.02;8.18;;;;;;;18.48;63.14;99060.16;5035018;28;20136;-76
2021/05/11 16:03:03;;;;;;;8.38;7.57;;;;;;;18.45;63.16;99057.78;5035448;28;20061;-76
2021/05/11 16:05:37;;;;;;;8.07;6.97;;;;;;;18.40;63.30;99054.75;5034953;28;20493;-76
2021/05/11 16:08:12;;;;;;;7.57;6.78;;;;;;;18.34;63.41;99065.06;5035162;28;20149;-76
2021/05/11 16:10:40;;;;;;;8.02;7.32;;;;;;;18.33;63.29;99059.88;5035366;28;20057;-76
2021/05/11 16:13:09;;;;;;;8.38;7.63;;;;;;;18.28;63.67;99052.34;5035655;28;20500;-73